Montrose Regional Airport
KMTJ : now visible

Aeroporto :











RITROVATECI SU...

 
LOGIN :

Iscrizione | Disclaimer

   EN    FR    IT 

 









Sommario :    VFR   VFR Marginale   IFR   IFR Intensivo   IFR Molto Intensivo
Visibilità : 
Base nubi : 
>= 8 km
>= 3000ft
5 / 8 km
1000 / 3000 ft
1500m / 5 km
500 / 1000 ft
800 / 1500m
200 / 500 ft
< 800m
< 200 ft
Simboli :   Temporali  Nebbia  Neve Forte  Precipitazioni Forti  Vento > 20 kt






- Altitudine del aeroporto : 5759 ft


KMTJ - Montrose Regional

ULTIMO METAR :
  • 200953Z AUTO 03003KT 10SM CLR M07/M17 A3044 RMK AO2 SLP313 T10671167

METARs OBSOLETI :
  • 200853Z AUTO 04008KT 10SM CLR M06/M17 A3042 RMK AO2 SLP305 T10611167 51025
  • 200753Z AUTO 01006KT 10SM CLR M05/M15 A3040 RMK AO2 SLP297 T10501150

TAF KMTJ
Valido dal 20 a 06 ore il 21 a 06 ore UTC


200530Z 2006/2106 VRB06KT P6SM SCT090 SCT180
FM200800 16010KT P6SM FEW250
FM201200 VRB05KT P6SM FEW250
FM210000 VRB05KT P6SM SKC



MetMap, La meteo Aeronautica in un colpo d'occhio ! - Copyright ORBIFLY Dicembre 2007 - Disclaimer

ORBIFLY MET'MAP TEAM :

Programmazione e sviluppo : Alexandra Zaïnal
Concezione : Baudouin d'Aumeries
Aiuto per la programmazione : Marc-Olivier Méhu
Supporto tecnico e logistico : Manuel Goepfert
Aiuto per la traduzione : Arnaldo La Scala

Contatto : metmap@orbifly.com




FONTI E CREDITI :

   NOAA       Earth
Advisory